Time;durP1;ratioP1;P1;durP2;ratioP2;P2;SDS_P1;SDS_P2;PMS_P1;PMS_P2;Temp;Humidity;BMP_temperature;BMP_pressure;BME280_temperature;BME280_humidity;BME280_pressure;Samples;Min_cycle;Max_cycle;Signal;HPM_P1;HPM_P2
2023/11/09 00:01:20;;;;;;;1.70;1.60;;;18.50;59.50;;;;;;4997479;28;20442;-78
2023/11/09 00:03:48;;;;;;;1.53;1.43;;;18.50;59.40;;;;;;4997651;28;20465;-78
2023/11/09 00:06:17;;;;;;;2.33;1.60;;;18.50;59.70;;;;;;5002805;28;20448;-77
2023/11/09 00:08:45;;;;;;;1.73;1.63;;;18.60;59.70;;;;;;4980189;28;20461;-77
2023/11/09 00:11:13;;;;;;;1.63;1.53;;;18.50;59.60;;;;;;5000035;28;20460;-78
2023/11/09 00:13:43;;;;;;;1.90;1.80;;;18.60;59.60;;;;;;4997341;28;20456;-79
2023/11/09 00:16:12;;;;;;;2.40;1.70;;;18.50;59.60;;;;;;4985217;28;20473;-77
2023/11/09 00:18:41;;;;;;;1.30;1.30;;;18.50;59.70;;;;;;4994627;28;20481;-77
2023/11/09 00:21:09;;;;;;;1.57;1.47;;;18.50;59.70;;;;;;4991511;28;20449;-77
2023/11/09 00:23:37;;;;;;;1.47;1.37;;;18.50;59.80;;;;;;4984358;28;20441;-78
2023/11/09 00:26:09;;;;;;;1.23;1.23;;;18.50;59.80;;;;;;4984261;28;20473;-76
2023/11/09 00:28:37;;;;;;;1.33;1.23;;;18.50;59.70;;;;;;4991503;28;20528;-77
2023/11/09 00:31:06;;;;;;;1.57;1.40;;;18.50;59.80;;;;;;4978207;28;20485;-77
2023/11/09 00:33:34;;;;;;;1.43;1.33;;;18.50;59.80;;;;;;4990169;28;20449;-77
2023/11/09 00:36:02;;;;;;;1.27;1.17;;;18.50;59.80;;;;;;4980958;28;20478;-76
2023/11/09 00:38:30;;;;;;;1.47;1.47;;;18.50;59.80;;;;;;4988975;28;20552;-78
2023/11/09 00:40:58;;;;;;;1.80;1.70;;;18.50;60.00;;;;;;4997868;28;20446;-77
2023/11/09 00:43:26;;;;;;;3.83;1.40;;;18.50;59.90;;;;;;4993916;28;20540;-77
2023/11/09 00:45:54;;;;;;;1.40;1.30;;;18.50;60.10;;;;;;4984749;28;20520;-77
2023/11/09 00:48:24;;;;;;;1.33;1.30;;;18.50;60.10;;;;;;4992120;28;20434;-76
2023/11/09 00:50:53;;;;;;;1.60;1.50;;;18.50;60.10;;;;;;4996328;28;20468;-76
2023/11/09 00:53:21;;;;;;;1.20;1.20;;;18.50;60.10;;;;;;4993521;28;20469;-77
2023/11/09 00:55:49;;;;;;;1.27;1.27;;;18.50;60.10;;;;;;4984924;28;20528;-77
2023/11/09 00:58:17;;;;;;;1.70;1.27;;;18.50;60.20;;;;;;4992544;28;20544;-78
2023/11/09 01:00:45;;;;;;;5.27;1.50;;;18.50;60.20;;;;;;4992487;28;20523;-77
2023/11/09 01:03:13;;;;;;;1.20;1.20;;;18.50;60.00;;;;;;4993352;28;20480;-78
2023/11/09 01:05:43;;;;;;;1.33;1.23;;;18.50;60.00;;;;;;4992891;28;20478;-77
2023/11/09 01:08:11;;;;;;;1.50;1.40;;;18.50;60.20;;;;;;4993011;28;20548;-78
2023/11/09 01:10:39;;;;;;;1.70;1.40;;;18.50;60.00;;;;;;4993144;28;20452;-78
2023/11/09 01:13:07;;;;;;;1.23;1.23;;;18.50;59.90;;;;;;4989397;28;20532;-78
2023/11/09 01:15:36;;;;;;;1.37;1.20;;;18.50;60.30;;;;;;4992905;28;20976;-77
2023/11/09 01:18:05;;;;;;;1.40;1.30;;;18.40;60.40;;;;;;4993082;28;20507;-78
2023/11/09 01:20:34;;;;;;;1.20;1.10;;;18.40;60.40;;;;;;4992815;28;20484;-76
2023/11/09 01:23:04;;;;;;;1.20;1.20;;;18.40;60.40;;;;;;4992484;28;20539;-78
2023/11/09 01:25:32;;;;;;;1.47;1.20;;;18.50;60.40;;;;;;4992710;28;20462;-77
2023/11/09 01:28:01;;;;;;;1.30;1.20;;;18.50;60.40;;;;;;4993126;28;20485;-77
2023/11/09 01:30:30;;;;;;;1.10;1.10;;;18.50;60.40;;;;;;4992924;28;20441;-77
2023/11/09 01:32:57;;;;;;;1.60;1.50;;;18.40;60.40;;;;;;4992974;28;20484;-77
2023/11/09 01:35:25;;;;;;;1.20;1.10;;;18.50;60.40;;;;;;4993258;28;20512;-77
2023/11/09 01:37:54;;;;;;;1.43;1.33;;;18.40;60.40;;;;;;4992779;28;20449;-77
2023/11/09 01:40:24;;;;;;;1.40;1.30;;;18.40;60.50;;;;;;4992588;28;20481;-77
2023/11/09 01:42:52;;;;;;;1.10;1.10;;;18.40;60.70;;;;;;4992751;28;20437;-77
2023/11/09 01:45:21;;;;;;;1.20;1.20;;;18.40;60.60;;;;;;4995639;28;20496;-77
2023/11/09 01:47:49;;;;;;;1.50;1.40;;;18.40;60.50;;;;;;4996589;28;20434;-77
2023/11/09 01:50:17;;;;;;;1.20;1.10;;;18.40;60.60;;;;;;4996435;28;20445;-78
2023/11/09 01:52:45;;;;;;;1.13;1.13;;;18.50;60.70;;;;;;4996872;28;20521;-79
2023/11/09 01:55:13;;;;;;;1.50;1.40;;;18.40;60.50;;;;;;4997282;28;20557;-76
2023/11/09 01:57:43;;;;;;;1.83;1.07;;;18.50;60.70;;;;;;4996537;28;20496;-76
2023/11/09 02:00:13;;;;;;;1.40;1.30;;;18.40;60.70;;;;;;4996678;28;20472;-75
2023/11/09 02:02:41;;;;;;;1.20;1.10;;;18.40;60.70;;;;;;4996056;28;20517;-75
2023/11/09 02:05:09;;;;;;;0.90;0.90;;;18.40;60.60;;;;;;4996296;28;20457;-76
2023/11/09 02:07:37;;;;;;;1.30;1.20;;;18.50;60.80;;;;;;4989791;28;20453;-76
2023/11/09 02:10:07;;;;;;;1.37;1.27;;;18.40;60.80;;;;;;4991490;28;20440;-76
2023/11/09 02:12:36;;;;;;;4.40;1.20;;;18.40;60.70;;;;;;4995780;28;20503;-76
2023/11/09 02:15:06;;;;;;;1.93;1.10;;;18.40;60.70;;;;;;4995406;28;20469;-76
2023/11/09 02:17:34;;;;;;;0.90;0.90;;;18.40;60.80;;;;;;4996135;28;20469;-77
2023/11/09 02:20:02;;;;;;;1.20;1.10;;;18.40;60.80;;;;;;4996162;28;20472;-76
2023/11/09 02:22:30;;;;;;;1.10;1.10;;;18.40;60.80;;;;;;4997032;28;20476;-77
2023/11/09 02:24:59;;;;;;;1.47;1.37;;;18.40;60.80;;;;;;4995671;28;20976;-76
2023/11/09 02:27:28;;;;;;;1.00;1.00;;;18.40;60.90;;;;;;4998732;28;20494;-77
2023/11/09 02:29:56;;;;;;;1.73;1.00;;;18.40;60.90;;;;;;4995790;28;20540;-76
2023/11/09 02:32:24;;;;;;;0.97;0.97;;;18.40;61.00;;;;;;4995157;28;20472;-77
2023/11/09 02:34:52;;;;;;;1.33;1.23;;;18.40;60.70;;;;;;5002672;28;20473;-76
2023/11/09 02:37:21;;;;;;;1.07;1.07;;;18.40;61.10;;;;;;4998867;28;20898;-76
2023/11/09 02:39:52;;;;;;;2.67;1.30;;;18.40;61.10;;;;;;4996166;28;20448;-76
2023/11/09 02:42:22;;;;;;;3.10;1.20;;;18.40;60.80;;;;;;4995787;28;20453;-76
2023/11/09 02:44:50;;;;;;;1.67;1.27;;;18.40;61.10;;;;;;4996094;28;20535;-76
2023/11/09 02:47:18;;;;;;;1.30;1.20;;;18.40;61.10;;;;;;4995377;28;20517;-76
2023/11/09 02:49:45;;;;;;;1.20;1.10;;;18.40;60.90;;;;;;4995608;28;20541;-77
2023/11/09 02:52:16;;;;;;;0.93;0.93;;;18.40;61.20;;;;;;4996034;28;20477;-77
2023/11/09 02:54:44;;;;;;;1.07;1.07;;;18.40;61.00;;;;;;4995472;28;20503;-77
2023/11/09 02:57:12;;;;;;;1.30;1.00;;;18.40;61.20;;;;;;4994401;28;20545;-77
2023/11/09 02:59:43;;;;;;;2.27;1.20;;;18.40;61.20;;;;;;4995343;28;20449;-77
2023/11/09 03:02:11;;;;;;;1.17;1.17;;;18.40;61.30;;;;;;4995593;28;20437;-77
2023/11/09 03:04:40;;;;;;;1.00;1.00;;;18.40;61.20;;;;;;4995318;28;20531;-77
2023/11/09 03:07:09;;;;;;;1.37;1.27;;;18.40;61.10;;;;;;4995508;28;20532;-77
2023/11/09 03:09:38;;;;;;;1.47;1.37;;;18.40;61.20;;;;;;4994945;28;20448;-77
2023/11/09 03:12:07;;;;;;;1.17;1.17;;;18.40;60.90;;;;;;4995379;28;20437;-77
2023/11/09 03:14:35;;;;;;;1.20;1.13;;;18.40;61.30;;;;;;4995180;28;20465;-77
2023/11/09 03:17:07;;;;;;;1.63;1.53;;;18.40;61.10;;;;;;4995312;28;20532;-77
2023/11/09 03:19:36;;;;;;;1.27;1.23;;;18.40;61.40;;;;;;4995134;28;20453;-77
2023/11/09 03:22:04;;;;;;;1.30;1.30;;;18.40;61.30;;;;;;4994975;28;20512;-77
2023/11/09 03:24:33;;;;;;;1.40;1.30;;;18.40;61.30;;;;;;5014664;23;20493;-76
2023/11/09 03:27:02;;;;;;;1.40;1.33;;;18.40;61.30;;;;;;4991441;28;20517;-75
2023/11/09 03:29:31;;;;;;;1.20;1.20;;;18.40;61.20;;;;;;4993704;28;20425;-75
2023/11/09 03:31:59;;;;;;;1.37;1.37;;;18.40;61.40;;;;;;4993977;28;20430;-75
2023/11/09 03:34:28;;;;;;;1.30;1.30;;;18.40;61.00;;;;;;4995172;28;20532;-77
2023/11/09 03:36:56;;;;;;;1.47;1.40;;;18.40;61.30;;;;;;5012848;28;20440;-77
2023/11/09 03:39:25;;;;;;;1.40;1.30;;;18.40;61.50;;;;;;5013417;28;20432;-76
2023/11/09 03:41:53;;;;;;;0.93;0.93;;;18.40;61.50;;;;;;5013458;28;20526;-76
2023/11/09 03:44:21;;;;;;;2.93;1.37;;;18.40;61.50;;;;;;5017325;28;20448;-76
2023/11/09 03:46:51;;;;;;;1.60;1.50;;;18.40;62.40;;;;;;5018481;28;20539;-77
2023/11/09 03:49:20;;;;;;;5.07;1.30;;;18.40;61.50;;;;;;5018146;28;20444;-76
2023/11/09 03:51:50;;;;;;;2.30;1.20;;;18.40;61.60;;;;;;5013361;28;20995;-76
2023/11/09 03:54:19;;;;;;;1.37;1.27;;;18.40;61.50;;;;;;5013481;28;20451;-76
2023/11/09 03:56:46;;;;;;;2.43;1.40;;;18.40;61.70;;;;;;5013092;28;20444;-77
2023/11/09 03:59:14;;;;;;;1.53;1.43;;;18.40;61.70;;;;;;5012808;28;20476;-76
2023/11/09 04:01:42;;;;;;;2.67;2.00;;;18.40;61.70;;;;;;5011248;28;20500;-76
2023/11/09 04:04:10;;;;;;;2.27;2.07;;;18.40;61.70;;;;;;5012440;28;20519;-76
2023/11/09 04:06:38;;;;;;;2.77;2.57;;;18.40;61.60;;;;;;5001730;28;20460;-77
2023/11/09 04:09:09;;;;;;;3.37;3.07;;;18.40;61.40;;;;;;4993197;28;20532;-76
2023/11/09 04:11:38;;;;;;;2.90;2.70;;;18.40;61.90;;;;;;5008678;28;20500;-76
2023/11/09 04:14:07;;;;;;;2.97;2.70;;;18.30;61.40;;;;;;4992564;28;20532;-76
2023/11/09 04:16:36;;;;;;;4.10;3.40;;;18.40;61.70;;;;;;5000565;28;20461;-75
2023/11/09 04:19:03;;;;;;;3.07;2.80;;;18.30;61.70;;;;;;5003614;28;20575;-76
2023/11/09 04:21:31;;;;;;;3.93;3.53;;;18.30;61.60;;;;;;5016769;28;20472;-76
2023/11/09 04:23:59;;;;;;;4.10;3.60;;;18.40;61.70;;;;;;4996854;28;20521;-75
2023/11/09 04:26:32;;;;;;;3.70;3.40;;;18.30;61.40;;;;;;5010873;28;20627;-75
2023/11/09 04:29:00;;;;;;;4.33;3.93;;;18.30;61.80;;;;;;5006832;28;20489;-75
2023/11/09 04:31:29;;;;;;;4.80;3.80;;;18.30;61.80;;;;;;4994736;28;20464;-76
2023/11/09 04:34:03;;;;;;;3.97;3.57;;;18.30;62.30;;;;;;5003394;28;20440;-75
2023/11/09 04:36:31;;;;;;;5.60;4.50;;;18.30;62.10;;;;;;4997164;28;20453;-76
2023/11/09 04:39:01;;;;;;;4.27;3.87;;;18.40;61.80;;;;;;5001107;28;20452;-75
2023/11/09 04:41:31;;;;;;;4.67;4.17;;;18.30;61.80;;;;;;5002202;28;20471;-76
2023/11/09 04:43:59;;;;;;;4.03;3.63;;;18.30;61.90;;;;;;4995066;28;20473;-76
2023/11/09 04:46:29;;;;;;;4.20;3.80;;;18.30;61.90;;;;;;5006705;28;20462;-76
2023/11/09 04:48:57;;;;;;;4.50;4.10;;;18.30;61.90;;;;;;4995294;28;20460;-76
2023/11/09 04:51:30;;;;;;;4.17;3.73;;;18.30;61.90;;;;;;4999173;28;20437;-76
2023/11/09 04:54:03;;;;;;;5.13;3.93;;;18.30;61.90;;;;;;4993306;28;20476;-76
2023/11/09 04:56:39;;;;;;;4.43;4.00;;;18.30;62.00;;;;;;4997707;28;20552;-76
2023/11/09 05:07:27;;;;;;;6.63;4.50;;;18.30;62.10;;;;;;4908620;28;20438;-76
2023/11/09 05:09:56;;;;;;;7.27;4.50;;;18.30;62.00;;;;;;4997467;28;20882;-76
2023/11/09 05:12:25;;;;;;;4.20;3.70;;;18.30;61.90;;;;;;4999077;28;20433;-76
2023/11/09 05:14:53;;;;;;;3.80;3.43;;;18.30;62.10;;;;;;5010379;28;20499;-76
2023/11/09 05:17:22;;;;;;;4.10;3.53;;;18.30;61.90;;;;;;5005127;28;20436;-76
2023/11/09 05:19:50;;;;;;;4.43;3.70;;;18.30;62.20;;;;;;5016517;28;20435;-75
2023/11/09 05:22:19;;;;;;;5.33;4.20;;;18.30;61.90;;;;;;4998734;28;20486;-75
2023/11/09 05:24:47;;;;;;;4.97;4.10;;;18.30;62.20;;;;;;4998476;28;21018;-76
2023/11/09 05:27:17;;;;;;;5.10;4.10;;;18.30;62.00;;;;;;4998644;28;20442;-76
2023/11/09 05:29:47;;;;;;;4.37;3.70;;;18.30;62.00;;;;;;5000087;28;20930;-76
2023/11/09 05:32:15;;;;;;;3.77;3.47;;;18.30;62.10;;;;;;4997353;28;20496;-76
2023/11/09 05:34:43;;;;;;;4.80;4.27;;;18.30;61.90;;;;;;5005016;28;20479;-75
2023/11/09 05:37:11;;;;;;;3.97;3.60;;;18.30;62.10;;;;;;4994946;28;20567;-76
2023/11/09 05:39:40;;;;;;;5.80;4.30;;;18.30;62.20;;;;;;4995997;28;20441;-76
2023/11/09 05:42:09;;;;;;;3.87;3.50;;;18.30;61.80;;;;;;4997654;28;20489;-76
2023/11/09 05:44:37;;;;;;;3.43;3.13;;;18.30;62.20;;;;;;4999118;28;20492;-75
2023/11/09 05:47:06;;;;;;;3.67;3.37;;;18.30;62.30;;;;;;4992027;28;20449;-75
2023/11/09 05:49:35;;;;;;;3.67;3.37;;;18.30;62.10;;;;;;4999176;28;21004;-75
2023/11/09 05:52:03;;;;;;;4.13;3.73;;;18.30;62.10;;;;;;4992218;28;20448;-75
2023/11/09 05:54:31;;;;;;;4.13;3.70;;;18.30;62.00;;;;;;4997083;28;20433;-75
2023/11/09 05:56:59;;;;;;;4.23;3.83;;;18.30;62.10;;;;;;5004806;28;20435;-75
2023/11/09 05:59:27;;;;;;;4.30;3.20;;;18.30;62.40;;;;;;4998854;28;20469;-75
2023/11/09 06:01:55;;;;;;;3.63;3.33;;;18.30;62.40;;;;;;5008618;28;20475;-76
2023/11/09 06:04:29;;;;;;;3.00;2.80;;;18.30;62.20;;;;;;5014753;28;20934;-75
2023/11/09 06:06:57;;;;;;;3.60;3.30;;;18.30;62.20;;;;;;5004147;28;20475;-75
2023/11/09 06:09:25;;;;;;;3.23;2.73;;;18.30;62.20;;;;;;5003986;28;20445;-75
2023/11/09 06:11:54;;;;;;;3.40;3.10;;;18.30;62.10;;;;;;5010235;28;20476;-75
2023/11/09 06:14:21;;;;;;;3.13;2.67;;;18.30;62.00;;;;;;4991382;28;20469;-75
2023/11/09 06:16:50;;;;;;;3.67;3.37;;;18.30;62.40;;;;;;5000704;28;20441;-76
2023/11/09 06:19:18;;;;;;;3.67;3.00;;;18.30;62.40;;;;;;5003154;28;20539;-75
2023/11/09 06:21:51;;;;;;;3.70;3.30;;;18.30;62.40;;;;;;5011034;28;20452;-75
2023/11/09 06:24:19;;;;;;;3.60;3.10;;;18.30;62.50;;;;;;5010600;28;20535;-75
2023/11/09 06:26:47;;;;;;;2.90;2.70;;;18.30;62.40;;;;;;5011393;28;20527;-75
2023/11/09 06:29:15;;;;;;;3.00;2.70;;;18.30;62.10;;;;;;5010729;28;20531;-76
2023/11/09 06:31:43;;;;;;;3.00;2.80;;;18.30;62.40;;;;;;5012722;28;20875;-75
2023/11/09 06:34:14;;;;;;;3.17;2.90;;;18.30;62.60;;;;;;5014414;28;20535;-76
2023/11/09 06:36:44;;;;;;;2.80;2.60;;;18.30;62.40;;;;;;5014451;28;20440;-76
2023/11/09 06:39:16;;;;;;;2.90;2.70;;;18.30;62.40;;;;;;5014177;28;20454;-77
2023/11/09 06:41:45;;;;;;;3.40;3.17;;;18.30;62.60;;;;;;5014180;28;20453;-77
2023/11/09 06:44:13;;;;;;;3.27;2.97;;;18.30;62.50;;;;;;5014667;28;20444;-76
2023/11/09 06:46:41;;;;;;;3.07;2.73;;;18.40;62.40;;;;;;5013876;28;20547;-76
2023/11/09 06:49:11;;;;;;;2.60;2.50;;;18.30;62.40;;;;;;5014111;28;20823;-76
2023/11/09 06:51:39;;;;;;;2.60;2.50;;;18.30;62.50;;;;;;5014336;28;20452;-76
2023/11/09 06:54:08;;;;;;;2.60;2.40;;;18.40;62.70;;;;;;5014130;28;20535;-76
2023/11/09 06:56:37;;;;;;;3.00;2.80;;;18.40;63.40;;;;;;5017087;28;20563;-76
2023/11/09 06:59:06;;;;;;;2.57;2.40;;;18.30;62.60;;;;;;5017399;28;20472;-76
2023/11/09 07:01:35;;;;;;;2.73;2.53;;;18.40;62.60;;;;;;5017419;28;20546;-76
2023/11/09 07:04:04;;;;;;;2.67;2.50;;;18.40;62.90;;;;;;5013789;28;20476;-76
2023/11/09 07:06:32;;;;;;;2.97;2.77;;;18.40;62.70;;;;;;5013628;28;20474;-76
2023/11/09 07:09:00;;;;;;;3.00;2.80;;;18.40;62.80;;;;;;5013777;28;20452;-76
2023/11/09 07:11:31;;;;;;;3.03;2.83;;;18.40;62.70;;;;;;5013513;28;20527;-75
2023/11/09 07:14:01;;;;;;;4.20;2.87;;;18.40;62.70;;;;;;5013948;28;20452;-76
2023/11/09 07:16:28;;;;;;;2.40;2.30;;;18.40;62.70;;;;;;5014035;28;20503;-75
2023/11/09 07:18:56;;;;;;;2.50;2.40;;;18.40;62.90;;;;;;5013684;28;20496;-75
2023/11/09 07:21:25;;;;;;;2.40;2.30;;;18.40;62.70;;;;;;5013583;28;20456;-75
2023/11/09 07:23:59;;;;;;;2.87;2.67;;;18.40;62.80;;;;;;5013114;28;20476;-75
2023/11/09 07:26:29;;;;;;;3.20;2.93;;;18.40;62.70;;;;;;5013349;28;20479;-75
2023/11/09 07:28:57;;;;;;;2.80;2.60;;;18.40;62.80;;;;;;5013206;28;20530;-75
2023/11/09 07:31:27;;;;;;;2.80;2.70;;;18.40;62.90;;;;;;5013250;28;20451;-76
2023/11/09 07:33:55;;;;;;;2.50;2.37;;;18.40;62.80;;;;;;5013139;28;20449;-75
2023/11/09 07:36:24;;;;;;;2.50;2.40;;;18.40;62.90;;;;;;5012886;28;20461;-76
2023/11/09 07:38:53;;;;;;;2.73;2.53;;;18.40;62.60;;;;;;5013398;28;20452;-75
2023/11/09 07:41:26;;;;;;;2.57;2.47;;;18.40;62.90;;;;;;5012806;28;20439;-75
2023/11/09 07:43:55;;;;;;;2.10;2.00;;;18.40;62.90;;;;;;5012961;28;20567;-76
2023/11/09 07:46:23;;;;;;;2.50;2.10;;;18.40;63.00;;;;;;5012869;28;20460;-76
2023/11/09 07:48:54;;;;;;;2.20;2.10;;;18.40;63.10;;;;;;5013006;28;20519;-77
2023/11/09 07:51:23;;;;;;;2.60;2.40;;;18.50;63.00;;;;;;5013034;28;20476;-76
2023/11/09 07:53:52;;;;;;;2.77;2.57;;;18.50;63.00;;;;;;5013071;28;20524;-75
2023/11/09 07:56:20;;;;;;;2.40;2.30;;;18.50;63.00;;;;;;5012745;28;20532;-76
2023/11/09 07:58:48;;;;;;;2.10;2.00;;;18.50;63.00;;;;;;5013333;28;20543;-76
2023/11/09 08:01:16;;;;;;;2.30;2.20;;;18.50;63.10;;;;;;5005817;28;20449;-76
2023/11/09 08:03:45;;;;;;;2.93;2.27;;;18.50;62.90;;;;;;5012583;28;20495;-77
2023/11/09 08:06:15;;;;;;;2.37;2.27;;;18.50;63.00;;;;;;5012243;28;20469;-76
2023/11/09 08:08:44;;;;;;;2.50;2.23;;;18.50;63.10;;;;;;5013634;28;20496;-76
2023/11/09 08:11:12;;;;;;;2.47;2.30;;;18.50;63.10;;;;;;4994162;28;20504;-76
2023/11/09 08:13:41;;;;;;;2.37;2.17;;;18.50;63.10;;;;;;4999252;28;20520;-76
2023/11/09 08:16:10;;;;;;;3.27;2.10;;;18.60;63.20;;;;;;5001010;28;20449;-76
2023/11/09 08:18:38;;;;;;;2.30;2.10;;;18.60;63.00;;;;;;5000639;28;20452;-76
2023/11/09 08:21:06;;;;;;;2.40;2.30;;;18.60;63.30;;;;;;5009663;28;20520;-75
2023/11/09 08:23:35;;;;;;;2.27;2.17;;;18.60;63.00;;;;;;5011827;28;20515;-77
2023/11/09 08:26:04;;;;;;;2.20;2.10;;;18.60;63.10;;;;;;5011733;28;20499;-75
2023/11/09 08:28:33;;;;;;;2.13;2.03;;;18.70;63.20;;;;;;5012095;28;20436;-76
2023/11/09 08:31:01;;;;;;;2.13;2.03;;;18.70;62.90;;;;;;5011890;28;20432;-76
2023/11/09 08:33:29;;;;;;;2.20;2.10;;;18.70;63.20;;;;;;5012106;28;20896;-76
2023/11/09 08:35:58;;;;;;;2.30;2.20;;;18.70;63.00;;;;;;5011955;28;20464;-76
2023/11/09 08:38:28;;;;;;;2.20;2.10;;;18.70;63.10;;;;;;5011869;28;20476;-76
2023/11/09 08:40:58;;;;;;;2.03;1.93;;;18.70;62.90;;;;;;5012130;28;20539;-76
2023/11/09 08:43:26;;;;;;;2.10;2.00;;;18.70;62.80;;;;;;5011871;28;20558;-77
2023/11/09 08:45:54;;;;;;;2.80;2.10;;;18.70;63.10;;;;;;5011622;28;20464;-76
2023/11/09 08:48:22;;;;;;;1.87;1.77;;;18.70;63.10;;;;;;5011319;28;20463;-76
2023/11/09 08:50:50;;;;;;;1.77;1.67;;;18.70;63.10;;;;;;5011700;28;20444;-76
2023/11/09 08:53:18;;;;;;;2.00;1.90;;;18.70;63.10;;;;;;5010310;28;20523;-76
2023/11/09 08:55:46;;;;;;;2.17;2.00;;;18.70;63.10;;;;;;5003556;28;20539;-77
2023/11/09 08:58:15;;;;;;;2.00;1.90;;;18.80;63.20;;;;;;5011017;28;20459;-77
2023/11/09 09:00:43;;;;;;;2.13;2.03;;;18.70;63.10;;;;;;5008234;28;20433;-76
2023/11/09 09:03:11;;;;;;;4.20;1.80;;;18.80;63.20;;;;;;5011228;28;20551;-76
2023/11/09 09:05:41;;;;;;;2.20;1.83;;;18.80;63.40;;;;;;5004378;28;20468;-76
2023/11/09 09:08:09;;;;;;;2.00;1.90;;;18.80;63.20;;;;;;5010763;28;20455;-76
2023/11/09 09:10:37;;;;;;;1.90;1.80;;;18.80;63.20;;;;;;5007674;28;20433;-75
2023/11/09 09:13:07;;;;;;;1.90;1.70;;;18.80;63.20;;;;;;5010843;28;20432;-75
2023/11/09 09:15:37;;;;;;;1.60;1.60;;;18.80;63.20;;;;;;5008987;28;20535;-77
2023/11/09 09:18:09;;;;;;;2.00;1.90;;;18.80;63.20;;;;;;5010912;28;20478;-77
2023/11/09 09:20:39;;;;;;;1.37;1.37;;;18.80;63.20;;;;;;5009677;28;20433;-77
2023/11/09 09:23:07;;;;;;;2.00;1.90;;;18.80;62.90;;;;;;5011671;28;20511;-77
2023/11/09 09:25:36;;;;;;;2.27;2.17;;;18.80;63.20;;;;;;5007993;28;20431;-78
2023/11/09 09:28:04;;;;;;;2.20;2.10;;;18.90;63.40;;;;;;5015317;28;20437;-78
2023/11/09 09:30:35;;;;;;;1.70;1.60;;;18.90;63.30;;;;;;5006879;28;20448;-77
2023/11/09 09:33:07;;;;;;;2.10;2.00;;;18.90;63.30;;;;;;5012955;28;20444;-77
2023/11/09 09:35:36;;;;;;;1.73;1.63;;;18.90;63.40;;;;;;5012508;28;20463;-76
2023/11/09 09:38:15;;;;;;;2.10;2.00;;;18.90;63.10;;;;;;5012682;28;20439;-77
2023/11/09 09:40:44;;;;;;;1.80;1.70;;;18.90;63.30;;;;;;5005974;28;20436;-78
2023/11/09 09:43:19;;;;;;;1.80;1.70;;;18.90;63.30;;;;;;5013647;28;20475;-78
2023/11/09 09:45:48;;;;;;;2.03;1.93;;;18.90;63.40;;;;;;5013933;28;20448;-77
2023/11/09 09:48:17;;;;;;;1.93;1.83;;;18.90;63.40;;;;;;5017479;28;20472;-77
2023/11/09 09:50:46;;;;;;;1.80;1.70;;;19.00;63.40;;;;;;5013361;28;20449;-77
2023/11/09 09:53:20;;;;;;;1.83;1.67;;;19.00;63.30;;;;;;5011978;28;20519;-77
2023/11/09 09:55:48;;;;;;;1.70;1.60;;;19.00;63.40;;;;;;4998616;28;20516;-77
2023/11/09 09:58:16;;;;;;;2.10;2.00;;;19.00;63.70;;;;;;4992264;28;20472;-77
2023/11/09 10:00:45;;;;;;;1.97;1.73;;;19.00;63.40;;;;;;4991368;28;20437;-77
2023/11/09 10:03:16;;;;;;;1.97;1.87;;;19.10;63.60;;;;;;4992775;28;20473;-76
2023/11/09 10:05:46;;;;;;;2.10;1.93;;;19.10;63.30;;;;;;4992758;28;20477;-77
2023/11/09 10:08:15;;;;;;;1.83;1.73;;;19.10;63.30;;;;;;4994779;28;20448;-75
2023/11/09 10:10:47;;;;;;;2.27;2.13;;;19.10;63.60;;;;;;4995247;28;20535;-75
2023/11/09 10:13:18;;;;;;;1.90;1.80;;;19.20;63.50;;;;;;4995442;28;20459;-76
2023/11/09 10:15:47;;;;;;;1.80;1.70;;;19.20;63.40;;;;;;4995738;28;20452;-76
2023/11/09 10:18:15;;;;;;;2.00;1.90;;;19.20;63.30;;;;;;5008888;28;20510;-76
2023/11/09 10:20:55;;;;;;;2.10;2.00;;;19.20;63.40;;;;;;5008118;28;20537;-76
2023/11/09 10:23:23;;;;;;;2.10;2.00;;;19.20;64.00;;;;;;5004202;28;20517;-76
2023/11/09 10:25:51;;;;;;;2.00;1.90;;;19.20;63.40;;;;;;5000687;28;20559;-77
2023/11/09 10:28:20;;;;;;;3.53;2.00;;;19.20;63.60;;;;;;5005129;28;20532;-76
2023/11/09 10:30:49;;;;;;;2.00;1.90;;;19.20;63.50;;;;;;5011625;28;20505;-76
2023/11/09 10:33:18;;;;;;;2.00;1.90;;;19.20;63.30;;;;;;5016744;28;20440;-76
2023/11/09 10:35:46;;;;;;;2.27;2.17;;;19.20;63.60;;;;;;5003139;28;20457;-77
2023/11/09 10:38:20;;;;;;;2.17;2.07;;;19.30;63.80;;;;;;5000807;28;20538;-76
2023/11/09 10:40:48;;;;;;;2.30;2.10;;;19.30;63.70;;;;;;5003841;28;20424;-76
2023/11/09 10:43:36;;;;;;;2.53;2.33;;;19.40;63.70;;;;;;5009968;28;20433;-77
2023/11/09 10:46:08;;;;;;;2.27;2.17;;;19.40;63.50;;;;;;5004963;28;20512;-76
2023/11/09 10:48:40;;;;;;;2.13;2.00;;;19.50;63.60;;;;;;5006601;28;20444;-74
2023/11/09 10:51:09;;;;;;;1.80;1.70;;;19.60;63.60;;;;;;5022817;28;20954;-75
2023/11/09 10:53:41;;;;;;;2.20;2.10;;;19.60;63.40;;;;;;4999863;28;20445;-75
2023/11/09 10:56:13;;;;;;;2.20;2.10;;;19.70;63.20;;;;;;5005235;28;20476;-75
2023/11/09 10:58:44;;;;;;;1.80;1.70;;;19.80;63.50;;;;;;5005263;28;20525;-75
2023/11/09 11:01:17;;;;;;;3.13;2.43;;;19.80;63.30;;;;;;5010311;28;20512;-75
2023/11/09 11:03:51;;;;;;;2.23;2.10;;;20.00;62.90;;;;;;5012836;28;20522;-76
2023/11/09 11:06:20;;;;;;;4.17;2.00;;;20.00;63.10;;;;;;5008022;28;20535;-75
2023/11/09 11:08:51;;;;;;;7.57;1.87;;;20.10;62.70;;;;;;5006902;28;20522;-75
2023/11/09 11:11:24;;;;;;;2.53;2.33;;;20.20;62.60;;;;;;5005327;28;20441;-76
2023/11/09 11:13:57;;;;;;;2.70;2.50;;;20.20;62.50;;;;;;4998320;28;20440;-76
2023/11/09 11:16:38;;;;;;;3.57;1.80;;;20.20;62.50;;;;;;5001087;28;20464;-75
2023/11/09 11:19:23;;;;;;;2.40;2.30;;;20.20;62.30;;;;;;5002333;28;20459;-75
2023/11/09 11:21:57;;;;;;;2.40;2.20;;;20.20;62.60;;;;;;5003729;28;20441;-75
2023/11/09 11:24:51;;;;;;;2.60;2.40;;;20.30;62.70;;;;;;5004193;28;20433;-75
2023/11/09 11:27:24;;;;;;;3.10;1.77;;;20.40;62.80;;;;;;4995141;28;20441;-74
2023/11/09 11:29:53;;;;;;;2.60;2.40;;;20.40;62.40;;;;;;4999211;28;20478;-74
2023/11/09 11:32:22;;;;;;;2.47;2.27;;;20.40;62.20;;;;;;5006274;28;20532;-75
2023/11/09 11:34:54;;;;;;;2.03;1.90;;;20.40;62.40;;;;;;4999417;28;20960;-75
2023/11/09 11:37:26;;;;;;;3.33;2.00;;;20.30;62.20;;;;;;5006798;28;20437;-75
2023/11/09 11:39:56;;;;;;;2.00;1.90;;;20.40;62.40;;;;;;5000547;28;20446;-75
2023/11/09 11:42:25;;;;;;;4.83;2.00;;;20.40;62.40;;;;;;5004020;28;20515;-75
2023/11/09 11:44:54;;;;;;;2.20;2.00;;;20.30;62.40;;;;;;5005656;28;20487;-75
2023/11/09 11:47:28;;;;;;;2.37;2.17;;;20.30;62.50;;;;;;5002286;28;20548;-75
2023/11/09 11:50:00;;;;;;;2.20;2.00;;;20.30;62.60;;;;;;5000788;28;20457;-75
2023/11/09 11:52:29;;;;;;;2.27;2.17;;;20.30;62.70;;;;;;4998617;28;20455;-75
2023/11/09 11:55:00;;;;;;;2.57;2.43;;;20.20;62.80;;;;;;5004356;28;20464;-74
2023/11/09 11:57:31;;;;;;;2.63;2.43;;;20.20;62.90;;;;;;4998932;28;20445;-76
2023/11/09 12:00:08;;;;;;;4.30;2.50;;;20.20;63.00;;;;;;4998887;28;20473;-76
2023/11/09 12:02:36;;;;;;;2.90;2.40;;;20.20;63.10;;;;;;5010088;28;21049;-76
2023/11/09 12:05:06;;;;;;;2.80;2.20;;;20.10;63.30;;;;;;5010324;28;20472;-77
2023/11/09 12:07:36;;;;;;;2.30;2.20;;;20.20;63.40;;;;;;5009803;28;20452;-76
2023/11/09 12:10:09;;;;;;;2.03;1.93;;;20.30;63.60;;;;;;5002104;28;20449;-76
2023/11/09 12:12:37;;;;;;;2.03;1.93;;;20.30;63.10;;;;;;5001299;28;20547;-76
2023/11/09 12:15:07;;;;;;;3.67;2.10;;;20.40;64.00;;;;;;5001088;28;20472;-76
2023/11/09 12:17:35;;;;;;;2.33;2.23;;;20.40;63.10;;;;;;5011861;28;20447;-76
2023/11/09 12:20:10;;;;;;;2.50;2.30;;;20.40;63.50;;;;;;5013729;28;20518;-75
2023/11/09 12:22:39;;;;;;;1.90;1.80;;;20.50;63.40;;;;;;5006486;28;20434;-76
2023/11/09 12:25:11;;;;;;;1.90;1.80;;;20.60;63.00;;;;;;5012413;28;20447;-76
2023/11/09 12:27:41;;;;;;;1.80;1.70;;;20.50;62.90;;;;;;5011931;28;20448;-76
2023/11/09 12:30:11;;;;;;;4.40;2.20;;;20.60;63.00;;;;;;5012817;28;20449;-76
2023/11/09 12:32:40;;;;;;;2.43;2.27;;;20.60;63.00;;;;;;5013535;28;20448;-75
2023/11/09 12:35:14;;;;;;;2.27;2.10;;;20.50;63.10;;;;;;5017084;28;20476;-76
2023/11/09 12:37:43;;;;;;;3.93;2.03;;;20.60;63.70;;;;;;5011267;28;20445;-76
2023/11/09 12:40:13;;;;;;;2.87;2.67;;;20.90;63.60;;;;;;5012996;28;20835;-76
2023/11/09 12:42:42;;;;;;;3.00;2.00;;;21.30;64.10;;;;;;5007260;28;20422;-76
2023/11/09 12:45:11;;;;;;;2.43;2.20;;;21.80;63.00;;;;;;5011015;28;20481;-76
2023/11/09 12:47:41;;;;;;;2.57;2.37;;;22.20;62.10;;;;;;4995750;28;20964;-76
2023/11/09 12:50:16;;;;;;;2.10;2.00;;;22.60;61.40;;;;;;5000772;28;20419;-75
2023/11/09 12:52:46;;;;;;;2.27;2.07;;;23.00;60.70;;;;;;4992551;28;20448;-77
2023/11/09 12:55:17;;;;;;;2.17;1.97;;;23.20;59.30;;;;;;4997817;28;20466;-76
2023/11/09 12:57:45;;;;;;;2.57;2.13;;;23.20;58.70;;;;;;4994493;28;20424;-76
2023/11/09 13:00:23;;;;;;;4.90;2.20;;;23.10;58.60;;;;;;5003029;28;20880;-75
2023/11/09 13:02:56;;;;;;;4.63;2.70;;;22.90;58.50;;;;;;4998979;28;20431;-76
2023/11/09 13:05:31;;;;;;;3.80;2.27;;;22.60;58.80;;;;;;4993566;28;20974;-76
2023/11/09 13:08:08;;;;;;;2.40;2.20;;;22.50;59.20;;;;;;4999194;28;20419;-76